Terminal Aerodrome Forecast
Issued by NWS

Home | Current Version | Previous Version | Graphics & Text | Print | Product List | Glossary On
Versions: 1 2 3 4 5 6 7 8 9 10 11 12 13 14 15 16 17 18 19 20 21
000
FTUS43 KGRB 081734
TAFCWA
TAF
KCWA 081734Z 0818/0918 28006KT P6SM BKN018
      TEMPO 0818/0822 -SN BKN020
     FM082200 27007KT 6SM -SN OVC018
     FM090000 24004KT 4SM -SN OVC015
     FM090100 25004KT 1SM -SN OVC008
     FM090600 31005KT 5SM -SN OVC010
     FM091000 34008KT P6SM BKN035
     FM091400 34009G16KT P6SM SCT050=

USA.gov is the U.S. government's official web portal to all federal, state and local government web resources and services.